sensor_id;sensor_type;location;lat;lon;timestamp;pressure;altitude;pressure_sealevel;temperature;humidity
58668;BME280;59852;43.086;25.634;2023-03-16T00:01:09;97873.44;;;9.38;nan
58668;BME280;59852;43.086;25.634;2023-03-16T00:03:35;97873.41;;;9.49;nan
58668;BME280;59852;43.086;25.634;2023-03-16T00:06:01;97878.94;;;9.35;nan
58668;BME280;59852;43.086;25.634;2023-03-16T00:08:26;97874.31;;;9.27;nan
58668;BME280;59852;43.086;25.634;2023-03-16T00:10:52;97876.41;;;9.33;nan
58668;BME280;59852;43.086;25.634;2023-03-16T00:13:18;97879.66;;;9.26;nan
58668;BME280;59852;43.086;25.634;2023-03-16T00:15:57;97883.94;;;9.27;nan
58668;BME280;59852;43.086;25.634;2023-03-16T00:18:24;97873.03;;;9.10;nan
58668;BME280;59852;43.086;25.634;2023-03-16T00:20:59;97877.41;;;9.21;nan
58668;BME280;59852;43.086;25.634;2023-03-16T00:23:27;97880.66;;;8.91;nan
58668;BME280;59852;43.086;25.634;2023-03-16T00:25:56;97878.03;;;9.02;nan
58668;BME280;59852;43.086;25.634;2023-03-16T00:28:23;97883.00;;;9.16;nan
58668;BME280;59852;43.086;25.634;2023-03-16T00:30:48;97890.00;;;9.05;nan
58668;BME280;59852;43.086;25.634;2023-03-16T00:33:14;97891.88;;;9.14;nan
58668;BME280;59852;43.086;25.634;2023-03-16T00:35:39;97890.09;;;9.26;nan
58668;BME280;59852;43.086;25.634;2023-03-16T00:38:13;97892.47;;;9.17;nan
58668;BME280;59852;43.086;25.634;2023-03-16T00:40:38;97895.56;;;9.00;nan
58668;BME280;59852;43.086;25.634;2023-03-16T00:43:04;97909.44;;;9.01;nan
58668;BME280;59852;43.086;25.634;2023-03-16T00:45:29;97898.66;;;9.16;nan
58668;BME280;59852;43.086;25.634;2023-03-16T00:47:56;97900.06;;;9.09;nan
58668;BME280;59852;43.086;25.634;2023-03-16T00:50:21;97903.88;;;9.05;nan
58668;BME280;59852;43.086;25.634;2023-03-16T00:52:47;97904.81;;;8.93;nan
58668;BME280;59852;43.086;25.634;2023-03-16T00:55:13;97907.69;;;8.79;nan
58668;BME280;59852;43.086;25.634;2023-03-16T00:57:38;97911.13;;;8.79;nan
58668;BME280;59852;43.086;25.634;2023-03-16T01:00:04;97900.66;;;9.02;nan
58668;BME280;59852;43.086;25.634;2023-03-16T01:02:41;97897.22;;;9.01;nan
58668;BME280;59852;43.086;25.634;2023-03-16T01:05:07;97904.81;;;8.93;nan
58668;BME280;59852;43.086;25.634;2023-03-16T01:07:33;97898.44;;;8.86;nan
58668;BME280;59852;43.086;25.634;2023-03-16T01:10:00;97904.13;;;8.46;nan
58668;BME280;59852;43.086;25.634;2023-03-16T01:12:25;97897.63;;;8.85;nan
58668;BME280;59852;43.086;25.634;2023-03-16T01:14:51;97894.38;;;8.93;nan
58668;BME280;59852;43.086;25.634;2023-03-16T01:17:17;97890.00;;;8.38;nan
58668;BME280;59852;43.086;25.634;2023-03-16T01:19:43;97895.25;;;8.14;nan
58668;BME280;59852;43.086;25.634;2023-03-16T01:22:09;97904.72;;;8.15;nan
58668;BME280;59852;43.086;25.634;2023-03-16T01:24:35;97904.69;;;8.39;nan
58668;BME280;59852;43.086;25.634;2023-03-16T01:27:01;97907.31;;;8.61;nan
58668;BME280;59852;43.086;25.634;2023-03-16T01:29:27;97909.41;;;8.45;nan
58668;BME280;59852;43.086;25.634;2023-03-16T01:31:52;97914.19;;;8.16;nan
58668;BME280;59852;43.086;25.634;2023-03-16T01:34:18;97916.66;;;8.52;nan
58668;BME280;59852;43.086;25.634;2023-03-16T01:36:45;97922.00;;;8.73;nan
58668;BME280;59852;43.086;25.634;2023-03-16T01:39:11;97923.06;;;8.82;nan
58668;BME280;59852;43.086;25.634;2023-03-16T01:41:37;97934.31;;;8.60;nan
58668;BME280;59852;43.086;25.634;2023-03-16T01:44:03;97940.69;;;8.10;nan
58668;BME280;59852;43.086;25.634;2023-03-16T01:46:28;97945.91;;;8.45;nan
58668;BME280;59852;43.086;25.634;2023-03-16T01:51:22;97950.06;;;8.47;nan
58668;BME280;59852;43.086;25.634;2023-03-16T01:53:49;97939.53;;;8.49;nan
58668;BME280;59852;43.086;25.634;2023-03-16T01:56:18;97940.19;;;8.04;nan
58668;BME280;59852;43.086;25.634;2023-03-16T01:58:44;97929.22;;;7.77;nan
58668;BME280;59852;43.086;25.634;2023-03-16T02:01:10;97933.53;;;7.89;nan
58668;BME280;59852;43.086;25.634;2023-03-16T02:03:37;97937.41;;;8.19;nan
58668;BME280;59852;43.086;25.634;2023-03-16T02:06:10;97925.84;;;8.34;nan
58668;BME280;59852;43.086;25.634;2023-03-16T02:08:37;97936.84;;;7.91;nan
58668;BME280;59852;43.086;25.634;2023-03-16T02:11:04;97943.56;;;7.59;nan
58668;BME280;59852;43.086;25.634;2023-03-16T02:13:30;97954.94;;;8.17;nan
58668;BME280;59852;43.086;25.634;2023-03-16T02:15:58;97951.22;;;8.43;nan
58668;BME280;59852;43.086;25.634;2023-03-16T02:18:23;97955.03;;;8.15;nan
58668;BME280;59852;43.086;25.634;2023-03-16T02:23:32;97961.72;;;8.30;nan
58668;BME280;59852;43.086;25.634;2023-03-16T02:31:12;97977.19;;;8.21;nan
58668;BME280;59852;43.086;25.634;2023-03-16T02:33:38;97981.47;;;8.22;nan
58668;BME280;59852;43.086;25.634;2023-03-16T02:36:04;97985.84;;;8.21;nan
58668;BME280;59852;43.086;25.634;2023-03-16T02:38:29;97979.56;;;7.89;nan
58668;BME280;59852;43.086;25.634;2023-03-16T02:40:59;97984.91;;;7.74;nan
58668;BME280;59852;43.086;25.634;2023-03-16T02:43:27;97986.22;;;7.56;nan
58668;BME280;59852;43.086;25.634;2023-03-16T02:45:57;97990.88;;;7.64;nan
58668;BME280;59852;43.086;25.634;2023-03-16T02:48:46;97990.59;;;7.56;nan
58668;BME280;59852;43.086;25.634;2023-03-16T02:51:09;98001.09;;;8.15;nan
58668;BME280;59852;43.086;25.634;2023-03-16T02:53:35;97997.28;;;8.08;nan
58668;BME280;59852;43.086;25.634;2023-03-16T02:56:01;98002.69;;;8.04;nan
58668;BME280;59852;43.086;25.634;2023-03-16T02:58:27;98008.38;;;6.87;nan
58668;BME280;59852;43.086;25.634;2023-03-16T03:00:52;98013.72;;;6.98;nan
58668;BME280;59852;43.086;25.634;2023-03-16T03:03:17;98019.72;;;7.11;nan
58668;BME280;59852;43.086;25.634;2023-03-16T03:05:43;98003.44;;;7.83;nan
58668;BME280;59852;43.086;25.634;2023-03-16T03:08:08;98012.63;;;7.26;nan
58668;BME280;59852;43.086;25.634;2023-03-16T03:10:34;98008.09;;;7.90;nan
58668;BME280;59852;43.086;25.634;2023-03-16T03:12:59;98014.84;;;7.93;nan
58668;BME280;59852;43.086;25.634;2023-03-16T03:15:24;98016.38;;;7.95;nan
58668;BME280;59852;43.086;25.634;2023-03-16T03:17:50;98005.66;;;7.39;nan
58668;BME280;59852;43.086;25.634;2023-03-16T03:20:15;98018.66;;;7.39;nan
58668;BME280;59852;43.086;25.634;2023-03-16T03:22:42;98014.41;;;7.26;nan
58668;BME280;59852;43.086;25.634;2023-03-16T03:25:11;98020.00;;;7.32;nan
58668;BME280;59852;43.086;25.634;2023-03-16T03:27:38;98027.22;;;7.65;nan
58668;BME280;59852;43.086;25.634;2023-03-16T03:30:03;98031.56;;;7.78;nan
58668;BME280;59852;43.086;25.634;2023-03-16T03:32:29;98031.75;;;7.87;nan
58668;BME280;59852;43.086;25.634;2023-03-16T03:34:54;98033.19;;;7.91;nan
58668;BME280;59852;43.086;25.634;2023-03-16T03:37:19;98037.38;;;7.81;nan
58668;BME280;59852;43.086;25.634;2023-03-16T03:39:45;98029.50;;;7.94;nan
58668;BME280;59852;43.086;25.634;2023-03-16T03:42:10;98043.94;;;7.87;nan
58668;BME280;59852;43.086;25.634;2023-03-16T03:44:36;98050.09;;;7.73;nan
58668;BME280;59852;43.086;25.634;2023-03-16T03:47:01;98059.00;;;7.45;nan
58668;BME280;59852;43.086;25.634;2023-03-16T03:49:27;98058.53;;;6.89;nan
58668;BME280;59852;43.086;25.634;2023-03-16T03:51:53;98059.16;;;6.93;nan
58668;BME280;59852;43.086;25.634;2023-03-16T03:54:18;98056.75;;;6.89;nan
58668;BME280;59852;43.086;25.634;2023-03-16T03:56:44;98067.88;;;7.17;nan
58668;BME280;59852;43.086;25.634;2023-03-16T03:59:09;98074.13;;;6.89;nan
58668;BME280;59852;43.086;25.634;2023-03-16T04:01:34;98072.97;;;6.93;nan
58668;BME280;59852;43.086;25.634;2023-03-16T04:04:00;98082.56;;;7.18;nan
58668;BME280;59852;43.086;25.634;2023-03-16T04:06:25;98090.56;;;7.15;nan
58668;BME280;59852;43.086;25.634;2023-03-16T04:08:51;98089.09;;;7.24;nan
58668;BME280;59852;43.086;25.634;2023-03-16T04:11:18;98090.84;;;6.85;nan
58668;BME280;59852;43.086;25.634;2023-03-16T04:13:43;98092.75;;;7.08;nan
58668;BME280;59852;43.086;25.634;2023-03-16T04:16:09;98105.66;;;7.10;nan
58668;BME280;59852;43.086;25.634;2023-03-16T04:18:34;98107.94;;;7.40;nan
58668;BME280;59852;43.086;25.634;2023-03-16T04:21:05;98100.63;;;7.07;nan
58668;BME280;59852;43.086;25.634;2023-03-16T04:23:31;98097.91;;;6.70;nan
58668;BME280;59852;43.086;25.634;2023-03-16T04:26:00;98104.72;;;7.11;nan
58668;BME280;59852;43.086;25.634;2023-03-16T04:28:26;98107.72;;;7.05;nan
58668;BME280;59852;43.086;25.634;2023-03-16T04:30:51;98106.59;;;6.56;nan
58668;BME280;59852;43.086;25.634;2023-03-16T04:33:19;98109.06;;;6.45;nan
58668;BME280;59852;43.086;25.634;2023-03-16T04:35:44;98111.84;;;6.42;nan
58668;BME280;59852;43.086;25.634;2023-03-16T04:38:10;98110.94;;;6.43;nan
58668;BME280;59852;43.086;25.634;2023-03-16T04:40:36;98119.00;;;6.12;nan
58668;BME280;59852;43.086;25.634;2023-03-16T04:43:02;98110.56;;;6.08;nan
58668;BME280;59852;43.086;25.634;2023-03-16T04:45:27;98112.63;;;6.03;nan
58668;BME280;59852;43.086;25.634;2023-03-16T04:47:53;98109.22;;;5.74;nan
58668;BME280;59852;43.086;25.634;2023-03-16T04:50:18;98106.19;;;6.23;nan
58668;BME280;59852;43.086;25.634;2023-03-16T04:52:43;98110.59;;;5.94;nan
58668;BME280;59852;43.086;25.634;2023-03-16T04:55:08;98099.75;;;6.28;nan
58668;BME280;59852;43.086;25.634;2023-03-16T04:57:34;98105.13;;;5.98;nan
58668;BME280;59852;43.086;25.634;2023-03-16T04:59:59;98107.72;;;5.84;nan
58668;BME280;59852;43.086;25.634;2023-03-16T05:02:25;98119.28;;;6.07;nan
58668;BME280;59852;43.086;25.634;2023-03-16T05:04:50;98120.00;;;6.09;nan
58668;BME280;59852;43.086;25.634;2023-03-16T05:07:15;98119.09;;;6.64;nan
58668;BME280;59852;43.086;25.634;2023-03-16T05:09:41;98134.69;;;6.10;nan
58668;BME280;59852;43.086;25.634;2023-03-16T05:12:06;98143.97;;;6.41;nan
58668;BME280;59852;43.086;25.634;2023-03-16T05:14:31;98158.41;;;5.90;nan
58668;BME280;59852;43.086;25.634;2023-03-16T05:17:00;98158.41;;;5.90;nan
58668;BME280;59852;43.086;25.634;2023-03-16T05:19:27;98166.59;;;5.98;nan
58668;BME280;59852;43.086;25.634;2023-03-16T05:21:53;98151.94;;;6.65;nan
58668;BME280;59852;43.086;25.634;2023-03-16T05:24:18;98155.34;;;6.39;nan
58668;BME280;59852;43.086;25.634;2023-03-16T05:26:44;98164.41;;;6.19;nan
58668;BME280;59852;43.086;25.634;2023-03-16T05:29:09;98168.44;;;6.10;nan
58668;BME280;59852;43.086;25.634;2023-03-16T05:31:34;98174.25;;;6.14;nan
58668;BME280;59852;43.086;25.634;2023-03-16T05:34:01;98177.78;;;5.98;nan
58668;BME280;59852;43.086;25.634;2023-03-16T05:36:26;98172.53;;;6.00;nan
58668;BME280;59852;43.086;25.634;2023-03-16T05:38:52;98176.53;;;5.91;nan
58668;BME280;59852;43.086;25.634;2023-03-16T05:41:17;98185.59;;;5.98;nan
58668;BME280;59852;43.086;25.634;2023-03-16T05:43:43;98196.69;;;5.86;nan
58668;BME280;59852;43.086;25.634;2023-03-16T05:46:08;98199.84;;;5.77;nan
58668;BME280;59852;43.086;25.634;2023-03-16T05:48:33;98210.88;;;5.81;nan
58668;BME280;59852;43.086;25.634;2023-03-16T05:50:59;98194.53;;;5.36;nan
58668;BME280;59852;43.086;25.634;2023-03-16T05:53:25;98210.41;;;5.74;nan
58668;BME280;59852;43.086;25.634;2023-03-16T05:55:52;98216.16;;;5.65;nan
58668;BME280;59852;43.086;25.634;2023-03-16T05:58:18;98214.53;;;5.34;nan
58668;BME280;59852;43.086;25.634;2023-03-16T06:00:43;98215.78;;;5.12;nan
58668;BME280;59852;43.086;25.634;2023-03-16T06:03:09;98221.09;;;4.95;nan
58668;BME280;59852;43.086;25.634;2023-03-16T06:05:34;98215.16;;;5.23;nan
58668;BME280;59852;43.086;25.634;2023-03-16T06:07:59;98223.56;;;5.12;nan
58668;BME280;59852;43.086;25.634;2023-03-16T06:10:25;98232.81;;;5.16;nan
58668;BME280;59852;43.086;25.634;2023-03-16T06:12:51;98242.84;;;4.93;nan
58668;BME280;59852;43.086;25.634;2023-03-16T06:15:17;98243.91;;;4.88;nan
58668;BME280;59852;43.086;25.634;2023-03-16T06:17:42;98244.28;;;4.82;nan
58668;BME280;59852;43.086;25.634;2023-03-16T06:20:08;98250.56;;;5.08;nan
58668;BME280;59852;43.086;25.634;2023-03-16T06:22:36;98255.97;;;5.19;nan
58668;BME280;59852;43.086;25.634;2023-03-16T06:25:02;98252.63;;;5.17;nan
58668;BME280;59852;43.086;25.634;2023-03-16T06:27:27;98261.72;;;5.69;nan
58668;BME280;59852;43.086;25.634;2023-03-16T06:29:52;98263.19;;;5.59;nan
58668;BME280;59852;43.086;25.634;2023-03-16T06:32:17;98269.41;;;5.56;nan
58668;BME280;59852;43.086;25.634;2023-03-16T06:34:43;98273.34;;;4.72;nan
58668;BME280;59852;43.086;25.634;2023-03-16T06:37:08;98282.09;;;5.16;nan
58668;BME280;59852;43.086;25.634;2023-03-16T06:39:33;98281.06;;;5.19;nan
58668;BME280;59852;43.086;25.634;2023-03-16T06:41:59;98290.00;;;5.29;nan
58668;BME280;59852;43.086;25.634;2023-03-16T06:44:24;98299.63;;;4.32;nan
58668;BME280;59852;43.086;25.634;2023-03-16T06:46:49;98301.66;;;5.06;nan
58668;BME280;59852;43.086;25.634;2023-03-16T06:49:15;98311.41;;;5.33;nan
58668;BME280;59852;43.086;25.634;2023-03-16T06:51:40;98312.69;;;5.70;nan
58668;BME280;59852;43.086;25.634;2023-03-16T06:54:06;98324.06;;;5.53;nan
58668;BME280;59852;43.086;25.634;2023-03-16T06:56:31;98318.66;;;4.96;nan
58668;BME280;59852;43.086;25.634;2023-03-16T06:58:57;98328.75;;;5.76;nan
58668;BME280;59852;43.086;25.634;2023-03-16T07:01:22;98333.19;;;5.14;nan
58668;BME280;59852;43.086;25.634;2023-03-16T07:03:48;98343.19;;;5.36;nan
58668;BME280;59852;43.086;25.634;2023-03-16T07:06:13;98345.13;;;5.01;nan
58668;BME280;59852;43.086;25.634;2023-03-16T07:08:38;98344.06;;;5.05;nan
58668;BME280;59852;43.086;25.634;2023-03-16T07:11:04;98343.50;;;5.46;nan
58668;BME280;59852;43.086;25.634;2023-03-16T07:13:29;98343.91;;;4.77;nan
58668;BME280;59852;43.086;25.634;2023-03-16T07:15:54;98352.25;;;5.13;nan
58668;BME280;59852;43.086;25.634;2023-03-16T07:18:20;98348.31;;;4.90;nan
58668;BME280;59852;43.086;25.634;2023-03-16T07:20:45;98353.38;;;5.39;nan
58668;BME280;59852;43.086;25.634;2023-03-16T07:23:11;98361.94;;;5.10;nan
58668;BME280;59852;43.086;25.634;2023-03-16T07:25:36;98369.69;;;4.47;nan
58668;BME280;59852;43.086;25.634;2023-03-16T07:28:02;98369.53;;;4.81;nan
58668;BME280;59852;43.086;25.634;2023-03-16T07:30:27;98375.91;;;4.92;nan
58668;BME280;59852;43.086;25.634;2023-03-16T07:32:53;98387.44;;;4.86;nan
58668;BME280;59852;43.086;25.634;2023-03-16T07:35:18;98386.94;;;5.11;nan
58668;BME280;59852;43.086;25.634;2023-03-16T07:37:44;98390.31;;;5.13;nan
58668;BME280;59852;43.086;25.634;2023-03-16T07:40:09;98395.25;;;5.02;nan
58668;BME280;59852;43.086;25.634;2023-03-16T07:42:35;98392.31;;;5.08;nan
58668;BME280;59852;43.086;25.634;2023-03-16T07:45:01;98403.59;;;5.23;nan
58668;BME280;59852;43.086;25.634;2023-03-16T07:47:26;98402.06;;;5.18;nan
58668;BME280;59852;43.086;25.634;2023-03-16T07:49:52;98405.69;;;5.16;nan
58668;BME280;59852;43.086;25.634;2023-03-16T07:52:17;98413.38;;;5.17;nan
58668;BME280;59852;43.086;25.634;2023-03-16T07:54:43;98415.56;;;5.25;nan
58668;BME280;59852;43.086;25.634;2023-03-16T07:57:08;98420.66;;;4.12;nan
58668;BME280;59852;43.086;25.634;2023-03-16T07:59:34;98427.28;;;3.83;nan
58668;BME280;59852;43.086;25.634;2023-03-16T08:01:59;98425.44;;;4.54;nan
58668;BME280;59852;43.086;25.634;2023-03-16T08:04:24;98424.88;;;3.43;nan
58668;BME280;59852;43.086;25.634;2023-03-16T08:06:50;98423.56;;;4.23;nan
58668;BME280;59852;43.086;25.634;2023-03-16T08:09:17;98436.97;;;3.43;nan
58668;BME280;59852;43.086;25.634;2023-03-16T08:11:42;98432.94;;;4.08;nan
58668;BME280;59852;43.086;25.634;2023-03-16T08:14:08;98436.13;;;3.42;nan
58668;BME280;59852;43.086;25.634;2023-03-16T08:16:33;98437.25;;;3.90;nan
58668;BME280;59852;43.086;25.634;2023-03-16T08:18:59;98441.19;;;3.63;nan
58668;BME280;59852;43.086;25.634;2023-03-16T08:21:25;98433.22;;;4.02;nan
58668;BME280;59852;43.086;25.634;2023-03-16T08:23:52;98438.72;;;4.13;nan
58668;BME280;59852;43.086;25.634;2023-03-16T08:26:18;98439.34;;;4.51;nan
58668;BME280;59852;43.086;25.634;2023-03-16T08:28:44;98441.47;;;4.94;nan
58668;BME280;59852;43.086;25.634;2023-03-16T08:31:10;98448.25;;;5.12;nan
58668;BME280;59852;43.086;25.634;2023-03-16T08:33:38;98446.16;;;4.37;nan
58668;BME280;59852;43.086;25.634;2023-03-16T08:36:07;98453.41;;;3.95;nan
58668;BME280;59852;43.086;25.634;2023-03-16T08:38:33;98456.84;;;3.96;nan
58668;BME280;59852;43.086;25.634;2023-03-16T08:40:58;98453.41;;;3.95;nan
58668;BME280;59852;43.086;25.634;2023-03-16T08:43:24;98462.47;;;3.51;nan
58668;BME280;59852;43.086;25.634;2023-03-16T08:45:50;98464.81;;;4.09;nan
58668;BME280;59852;43.086;25.634;2023-03-16T08:48:16;98472.44;;;3.94;nan
58668;BME280;59852;43.086;25.634;2023-03-16T08:50:42;98467.34;;;4.45;nan
58668;BME280;59852;43.086;25.634;2023-03-16T08:53:08;98463.38;;;4.38;nan
58668;BME280;59852;43.086;25.634;2023-03-16T08:55:34;98469.66;;;4.67;nan
58668;BME280;59852;43.086;25.634;2023-03-16T08:58:00;98465.59;;;4.61;nan
58668;BME280;59852;43.086;25.634;2023-03-16T09:00:26;98469.63;;;4.34;nan
58668;BME280;59852;43.086;25.634;2023-03-16T09:02:52;98475.56;;;4.18;nan
58668;BME280;59852;43.086;25.634;2023-03-16T09:05:19;98477.22;;;4.54;nan
58668;BME280;59852;43.086;25.634;2023-03-16T09:07:44;98478.81;;;4.22;nan
58668;BME280;59852;43.086;25.634;2023-03-16T09:10:11;98481.47;;;4.55;nan
58668;BME280;59852;43.086;25.634;2023-03-16T09:12:40;98487.66;;;4.18;nan
58668;BME280;59852;43.086;25.634;2023-03-16T09:15:06;98483.69;;;4.11;nan
58668;BME280;59852;43.086;25.634;2023-03-16T09:17:34;98482.31;;;3.86;nan
58668;BME280;59852;43.086;25.634;2023-03-16T09:20:00;98479.38;;;3.94;nan
58668;BME280;59852;43.086;25.634;2023-03-16T09:22:26;98477.59;;;4.46;nan
58668;BME280;59852;43.086;25.634;2023-03-16T09:24:52;98487.44;;;4.22;nan
58668;BME280;59852;43.086;25.634;2023-03-16T09:27:17;98489.34;;;4.36;nan
58668;BME280;59852;43.086;25.634;2023-03-16T09:29:43;98496.13;;;4.04;nan
58668;BME280;59852;43.086;25.634;2023-03-16T09:32:09;98506.34;;;4.24;nan
58668;BME280;59852;43.086;25.634;2023-03-16T09:34:35;98501.81;;;3.93;nan
58668;BME280;59852;43.086;25.634;2023-03-16T09:37:00;98507.16;;;4.25;nan
58668;BME280;59852;43.086;25.634;2023-03-16T09:39:26;98504.56;;;4.08;nan
58668;BME280;59852;43.086;25.634;2023-03-16T09:46:43;98525.22;;;3.90;nan
58668;BME280;59852;43.086;25.634;2023-03-16T09:49:10;98519.28;;;4.24;nan
58668;BME280;59852;43.086;25.634;2023-03-16T09:56:51;98535.22;;;3.98;nan
58668;BME280;59852;43.086;25.634;2023-03-16T09:59:19;98534.94;;;4.39;nan
58668;BME280;59852;43.086;25.634;2023-03-16T10:09:23;98542.91;;;3.99;nan
58668;BME280;59852;43.086;25.634;2023-03-16T10:11:54;98538.47;;;3.84;nan
58668;BME280;59852;43.086;25.634;2023-03-16T10:17:00;98550.50;;;4.02;nan
58668;BME280;59852;43.086;25.634;2023-03-16T10:22:16;98544.81;;;3.96;nan
58668;BME280;59852;43.086;25.634;2023-03-16T10:27:19;98555.44;;;3.90;nan
58668;BME280;59852;43.086;25.634;2023-03-16T10:29:48;98563.28;;;3.88;nan
58668;BME280;59852;43.086;25.634;2023-03-16T10:32:15;98560.38;;;3.58;nan
58668;BME280;59852;43.086;25.634;2023-03-16T10:34:42;98568.72;;;3.82;nan
58668;BME280;59852;43.086;25.634;2023-03-16T10:37:11;98565.50;;;3.96;nan
58668;BME280;59852;43.086;25.634;2023-03-16T10:39:37;98569.31;;;3.70;nan
58668;BME280;59852;43.086;25.634;2023-03-16T10:42:11;98566.19;;;4.36;nan
58668;BME280;59852;43.086;25.634;2023-03-16T10:44:38;98568.78;;;3.99;nan
58668;BME280;59852;43.086;25.634;2023-03-16T10:47:04;98582.09;;;4.28;nan
58668;BME280;59852;43.086;25.634;2023-03-16T10:49:37;98572.84;;;4.22;nan
58668;BME280;59852;43.086;25.634;2023-03-16T10:52:50;98567.63;;;4.58;nan
58668;BME280;59852;43.086;25.634;2023-03-16T10:54:52;98576.91;;;4.28;nan
58668;BME280;59852;43.086;25.634;2023-03-16T10:59:48;98565.50;;;3.96;nan
58668;BME280;59852;43.086;25.634;2023-03-16T11:02:15;98568.84;;;3.98;nan
58668;BME280;59852;43.086;25.634;2023-03-16T11:04:42;98570.38;;;4.55;nan
58668;BME280;59852;43.086;25.634;2023-03-16T11:07:07;98568.78;;;4.36;nan
58668;BME280;59852;43.086;25.634;2023-03-16T11:09:39;98568.44;;;4.07;nan
58668;BME280;59852;43.086;25.634;2023-03-16T11:12:14;98572.31;;;4.16;nan
58668;BME280;59852;43.086;25.634;2023-03-16T11:14:45;98575.50;;;4.03;nan
58668;BME280;59852;43.086;25.634;2023-03-16T11:17:17;98571.53;;;3.96;nan
58668;BME280;59852;43.086;25.634;2023-03-16T11:19:46;98576.28;;;3.87;nan
58668;BME280;59852;43.086;25.634;2023-03-16T11:22:21;98577.69;;;3.94;nan
58668;BME280;59852;43.086;25.634;2023-03-16T11:27:28;98578.84;;;4.06;nan
58668;BME280;59852;43.086;25.634;2023-03-16T11:30:00;98579.63;;;3.89;nan
58668;BME280;59852;43.086;25.634;2023-03-16T11:32:30;98575.88;;;3.96;nan
58668;BME280;59852;43.086;25.634;2023-03-16T11:34:57;98575.75;;;3.61;nan
58668;BME280;59852;43.086;25.634;2023-03-16T11:37:27;98578.31;;;3.61;nan
58668;BME280;59852;43.086;25.634;2023-03-16T11:39:58;98576.53;;;3.99;nan
58668;BME280;59852;43.086;25.634;2023-03-16T11:42:30;98580.63;;;3.67;nan
58668;BME280;59852;43.086;25.634;2023-03-16T11:50:21;98581.41;;;3.69;nan
58668;BME280;59852;43.086;25.634;2023-03-16T11:55:38;98584.56;;;3.76;nan
58668;BME280;59852;43.086;25.634;2023-03-16T12:03:23;98598.09;;;4.00;nan
58668;BME280;59852;43.086;25.634;2023-03-16T12:06:06;98602.00;;;4.09;nan
58668;BME280;59852;43.086;25.634;2023-03-16T12:11:10;98596.06;;;4.07;nan
58668;BME280;59852;43.086;25.634;2023-03-16T12:14:22;98603.31;;;4.17;nan
58668;BME280;59852;43.086;25.634;2023-03-16T12:18:58;98605.25;;;3.95;nan
58668;BME280;59852;43.086;25.634;2023-03-16T12:23:52;98607.84;;;3.57;nan
58668;BME280;59852;43.086;25.634;2023-03-16T12:26:20;98609.34;;;3.80;nan
58668;BME280;59852;43.086;25.634;2023-03-16T12:28:47;98611.50;;;3.52;nan
58668;BME280;59852;43.086;25.634;2023-03-16T12:39:01;98625.28;;;4.09;nan
58668;BME280;59852;43.086;25.634;2023-03-16T12:41:35;98633.09;;;4.26;nan
58668;BME280;59852;43.086;25.634;2023-03-16T12:44:16;98634.13;;;4.22;nan
58668;BME280;59852;43.086;25.634;2023-03-16T12:49:09;98633.13;;;4.07;nan
58668;BME280;59852;43.086;25.634;2023-03-16T12:51:35;98635.06;;;4.02;nan
58668;BME280;59852;43.086;25.634;2023-03-16T12:54:01;98643.38;;;4.27;nan
58668;BME280;59852;43.086;25.634;2023-03-16T12:56:50;98639.88;;;4.65;nan
58668;BME280;59852;43.086;25.634;2023-03-16T12:59:22;98639.91;;;4.10;nan
58668;BME280;59852;43.086;25.634;2023-03-16T13:01:48;98638.03;;;3.57;nan
58668;BME280;59852;43.086;25.634;2023-03-16T13:06:44;98645.38;;;3.66;nan
58668;BME280;59852;43.086;25.634;2023-03-16T13:09:10;98652.22;;;3.86;nan
58668;BME280;59852;43.086;25.634;2023-03-16T13:11:47;98656.00;;;4.16;nan
58668;BME280;59852;43.086;25.634;2023-03-16T13:17:21;98657.34;;;3.87;nan
58668;BME280;59852;43.086;25.634;2023-03-16T13:19:57;98661.06;;;4.37;nan
58668;BME280;59852;43.086;25.634;2023-03-16T13:23:05;98659.34;;;3.81;nan
58668;BME280;59852;43.086;25.634;2023-03-16T13:25:22;98668.50;;;3.69;nan
58668;BME280;59852;43.086;25.634;2023-03-16T13:27:53;98672.28;;;3.81;nan
58668;BME280;59852;43.086;25.634;2023-03-16T13:32:45;98677.25;;;3.66;nan
58668;BME280;59852;43.086;25.634;2023-03-16T13:35:15;98676.13;;;4.10;nan
58668;BME280;59852;43.086;25.634;2023-03-16T13:37:42;98675.84;;;3.78;nan
58668;BME280;59852;43.086;25.634;2023-03-16T13:42:45;98675.94;;;3.95;nan
58668;BME280;59852;43.086;25.634;2023-03-16T13:45:12;98680.06;;;4.18;nan
58668;BME280;59852;43.086;25.634;2023-03-16T13:47:42;98677.66;;;4.32;nan
58668;BME280;59852;43.086;25.634;2023-03-16T13:50:11;98682.72;;;3.98;nan
58668;BME280;59852;43.086;25.634;2023-03-16T13:52:38;98680.47;;;4.09;nan
58668;BME280;59852;43.086;25.634;2023-03-16T13:55:14;98684.22;;;3.83;nan
58668;BME280;59852;43.086;25.634;2023-03-16T13:57:40;98684.97;;;3.87;nan
58668;BME280;59852;43.086;25.634;2023-03-16T14:02:41;98688.03;;;4.14;nan
58668;BME280;59852;43.086;25.634;2023-03-16T14:05:11;98693.28;;;3.93;nan
58668;BME280;59852;43.086;25.634;2023-03-16T14:07:41;98692.19;;;3.60;nan
58668;BME280;59852;43.086;25.634;2023-03-16T14:10:08;98693.34;;;3.92;nan
58668;BME280;59852;43.086;25.634;2023-03-16T14:12:35;98695.63;;;3.60;nan
58668;BME280;59852;43.086;25.634;2023-03-16T14:15:02;98698.19;;;3.60;nan
58668;BME280;59852;43.086;25.634;2023-03-16T14:17:29;98701.25;;;3.89;nan
58668;BME280;59852;43.086;25.634;2023-03-16T14:19:56;98706.75;;;4.38;nan
58668;BME280;59852;43.086;25.634;2023-03-16T14:22:32;98702.34;;;4.21;nan
58668;BME280;59852;43.086;25.634;2023-03-16T14:24:58;98709.72;;;4.11;nan
58668;BME280;59852;43.086;25.634;2023-03-16T14:27:28;98715.06;;;3.69;nan
58668;BME280;59852;43.086;25.634;2023-03-16T14:30:01;98716.56;;;4.31;nan
58668;BME280;59852;43.086;25.634;2023-03-16T14:32:30;98717.06;;;4.20;nan
58668;BME280;59852;43.086;25.634;2023-03-16T14:35:02;98716.78;;;3.89;nan
58668;BME280;59852;43.086;25.634;2023-03-16T14:37:35;98721.09;;;3.88;nan
58668;BME280;59852;43.086;25.634;2023-03-16T14:40:02;98720.56;;;4.00;nan
58668;BME280;59852;43.086;25.634;2023-03-16T14:42:30;98717.81;;;4.41;nan
58668;BME280;59852;43.086;25.634;2023-03-16T14:44:56;98721.63;;;4.34;nan
58668;BME280;59852;43.086;25.634;2023-03-16T14:47:23;98726.91;;;4.12;nan